Capac, MI (48014)

7:10 PM EDT on October 24, 2014 (GMT -0400)
E Imlay TWP | Change Station
CLOSE
Current Station
Personal Weather Station
Location: Imlay City, MI
Elevation: 800 ft
Nearby Weather Stations

Elev 800 ft 43.05 °N, 83.01 °W | Updated 9 seconds ago

Overcast
Overcast
56.8 °F
Feels Like 56.8 °F
N
0.0
Wind Variable Wind from West
Gusts 0.0 mph

Today
High -- | Low -- °F
--% Chance of Precip.
Yesterday
High -- | Low -- °F
Precip. -- in
7:56 AM 6:34 PM
New Moon, 1% visible
Pressure 29.96 in
Visibility 10.0 miles
Clouds Mostly Cloudy 3800 ft
Dew Point 35 °F
Humidity 44%
Rainfall -999.00 in
Snow Depth Not available.
UV 0 out of 12
Pollen .90 out of 12
Ozone Good
PM2.5 Moderate
Flu Activity Sporadic
METAR KD95 242254Z AUTO 26003KT 10SM BKN038 13/08 A2996 RMK AO2 T01310078

More Conditions Fewer Conditions

Pressure 29.96 in
Visibility 10.0 miles
Clouds Mostly Cloudy 3800 ft
Dew Point 35 °F
Humidity 44%
Rainfall -999.00 in
Snow Depth Not available.
UV 0 out of 12
Pollen .90 out of 12
Ozone Good
PM2.5 Moderate
Flu Activity Sporadic
METAR KD95 242254Z AUTO 26003KT 10SM BKN038 13/08 A2996 RMK AO2 T01310078

More Conditions Fewer Conditions

10-Day Weather Forecast

Almanac

Astronomy

Oct. 24, 2014 Rise Set
Actual Time 7:56 AM EDT 6:34 PM EDT
Civil Twilight 7:27 AM EDT 7:03 PM EDT
Nautical Twilight 6:53 AM EDT 7:37 PM EDT
Astronomical Twilight 6:21 AM EDT 8:09 PM EDT
Moon 8:34 AM EDT 7:12 PM EDT
Length of Visible Light 11h 36m
Length of Day
10h 38m
Tomorrow will be 2m 44s shorter.
New Moon, 1% of the Moon is Illuminated
Today
New Moon
Oct 30
First Quarter
Nov 6
Full
Nov 14
Last Quarter
Nov 22
New

Today's Extremes

State Highs State Lows

Community

WunderPhotos

Upload Photos

1,764,708 photos uploaded!

Nearby

Air Quality

  Air Quality AQ Index Pollutant
Yesterday Good
PM10
Yesterday Good
OZONE
Current Moderate
PM2.5
Current Good
OZONE
Friday Moderate
PM2.5
Saturday Good
PM2.5
Sunday Good
PM2.5
Monday Moderate
PM2.5

Snow Depth

Station Depth Elevation
No new snow has been reported.

Earthquake Activity

City Distance Mag. Time & Date
No recent earthquake activity has been reported nearby.
Minimum magnitude displayed is 2.5.

Coastal Water Temperatures

Place Temperature
Harbor Beach, MI 48.9 °F

Nearby Weather Stations